Eldora, New Jersey
Current Conditions -  °F | °C
As of 5:54 PM on Thursday 18 Dec 2014 (Local Time) from KMIV Reporting Station
Clear Clear  
Wind Chill: 28°   Ceiling: Unl
Heat Index: 35°   Visibility: 10mi
Dew Point: 24°   Wind: 9mph
Humidity: 64%   Direction: 300°WNW
Pressure: 30.04"   Gusts: NA
Location:  39.2589°N, 74.8124°W
Report Text: KMIV 182254Z AUTO 30008KT 10SM CLR 02/M04 A3004 RMK AO2 SLP171 T00171044
Loading
Personal Weather Stations






























Interactive Weather Map New forecast layout! Learn more

10-Day Weather Forecast

Advertisements
Track Severe Weather on mobile